sensor_id;sensor_type;location;lat;lon;timestamp;temperature;humidity
7384;DHT22;3733;47.994;8.820;2023-03-20T00:03:41;6.50;99.90
7384;DHT22;3733;47.994;8.820;2023-03-20T00:06:27;6.50;99.90
7384;DHT22;3733;47.994;8.820;2023-03-20T00:08:54;6.50;99.90
7384;DHT22;3733;47.994;8.820;2023-03-20T00:14:06;6.50;99.90
7384;DHT22;3733;47.994;8.820;2023-03-20T00:16:34;6.50;99.90
7384;DHT22;3733;47.994;8.820;2023-03-20T00:19:00;6.50;99.90
7384;DHT22;3733;47.994;8.820;2023-03-20T00:21:27;6.50;99.90
7384;DHT22;3733;47.994;8.820;2023-03-20T00:23:54;6.50;99.90
7384;DHT22;3733;47.994;8.820;2023-03-20T00:26:25;6.50;99.90
7384;DHT22;3733;47.994;8.820;2023-03-20T00:28:51;6.50;99.90
7384;DHT22;3733;47.994;8.820;2023-03-20T00:31:38;6.60;99.90
7384;DHT22;3733;47.994;8.820;2023-03-20T00:34:12;6.60;99.90
7384;DHT22;3733;47.994;8.820;2023-03-20T00:36:38;6.60;99.90
7384;DHT22;3733;47.994;8.820;2023-03-20T00:39:04;6.60;99.90
7384;DHT22;3733;47.994;8.820;2023-03-20T00:41:31;6.60;99.90
7384;DHT22;3733;47.994;8.820;2023-03-20T00:46:32;6.60;99.90
7384;DHT22;3733;47.994;8.820;2023-03-20T00:49:00;6.50;99.90
7384;DHT22;3733;47.994;8.820;2023-03-20T00:51:26;6.50;99.90
7384;DHT22;3733;47.994;8.820;2023-03-20T00:53:51;6.50;99.90
7384;DHT22;3733;47.994;8.820;2023-03-20T00:56:30;6.50;99.90
7384;DHT22;3733;47.994;8.820;2023-03-20T00:58:57;6.40;99.90
7384;DHT22;3733;47.994;8.820;2023-03-20T01:01:23;6.40;99.90
7384;DHT22;3733;47.994;8.820;2023-03-20T01:03:49;6.40;99.90
7384;DHT22;3733;47.994;8.820;2023-03-20T01:06:15;6.30;99.90
7384;DHT22;3733;47.994;8.820;2023-03-20T01:08:40;6.30;99.90
7384;DHT22;3733;47.994;8.820;2023-03-20T01:11:09;6.30;99.90
7384;DHT22;3733;47.994;8.820;2023-03-20T01:13:37;6.30;99.90
7384;DHT22;3733;47.994;8.820;2023-03-20T01:16:04;6.30;99.90
7384;DHT22;3733;47.994;8.820;2023-03-20T01:18:30;6.30;99.90
7384;DHT22;3733;47.994;8.820;2023-03-20T01:20:55;6.30;99.90
7384;DHT22;3733;47.994;8.820;2023-03-20T01:23:21;6.30;99.90
7384;DHT22;3733;47.994;8.820;2023-03-20T01:25:51;6.40;99.90
7384;DHT22;3733;47.994;8.820;2023-03-20T01:28:18;6.40;99.90
7384;DHT22;3733;47.994;8.820;2023-03-20T01:30:44;6.40;99.90
7384;DHT22;3733;47.994;8.820;2023-03-20T01:33:17;6.40;99.90
7384;DHT22;3733;47.994;8.820;2023-03-20T01:35:44;6.40;99.90
7384;DHT22;3733;47.994;8.820;2023-03-20T01:38:22;6.40;99.90
7384;DHT22;3733;47.994;8.820;2023-03-20T01:40:50;6.40;99.90
7384;DHT22;3733;47.994;8.820;2023-03-20T01:43:19;6.40;99.90
7384;DHT22;3733;47.994;8.820;2023-03-20T01:46:12;6.40;99.90
7384;DHT22;3733;47.994;8.820;2023-03-20T01:56:20;6.40;99.90
7384;DHT22;3733;47.994;8.820;2023-03-20T01:58:49;6.40;99.90
7384;DHT22;3733;47.994;8.820;2023-03-20T02:01:16;6.30;99.90
7384;DHT22;3733;47.994;8.820;2023-03-20T02:03:46;6.30;99.90
7384;DHT22;3733;47.994;8.820;2023-03-20T02:06:13;6.30;99.90
7384;DHT22;3733;47.994;8.820;2023-03-20T02:08:46;6.30;99.90
7384;DHT22;3733;47.994;8.820;2023-03-20T02:11:12;6.30;99.90
7384;DHT22;3733;47.994;8.820;2023-03-20T02:13:39;6.30;99.90
7384;DHT22;3733;47.994;8.820;2023-03-20T02:18:34;6.30;99.90
7384;DHT22;3733;47.994;8.820;2023-03-20T02:42:34;6.30;99.90
7384;DHT22;3733;47.994;8.820;2023-03-20T02:45:16;6.30;99.90
7384;DHT22;3733;47.994;8.820;2023-03-20T02:58:54;6.40;99.90
7384;DHT22;3733;47.994;8.820;2023-03-20T03:01:40;6.40;99.90
7384;DHT22;3733;47.994;8.820;2023-03-20T03:04:12;6.40;99.90
7384;DHT22;3733;47.994;8.820;2023-03-20T03:06:43;6.40;99.90
7384;DHT22;3733;47.994;8.820;2023-03-20T03:09:40;6.40;99.90
7384;DHT22;3733;47.994;8.820;2023-03-20T03:17:12;6.50;99.90
7384;DHT22;3733;47.994;8.820;2023-03-20T03:19:41;6.40;99.90
7384;DHT22;3733;47.994;8.820;2023-03-20T03:22:07;6.50;99.90
7384;DHT22;3733;47.994;8.820;2023-03-20T03:24:38;6.40;99.90
7384;DHT22;3733;47.994;8.820;2023-03-20T03:27:20;6.50;99.90
7384;DHT22;3733;47.994;8.820;2023-03-20T03:29:54;6.50;99.90
7384;DHT22;3733;47.994;8.820;2023-03-20T03:32:29;6.40;99.90
7384;DHT22;3733;47.994;8.820;2023-03-20T03:34:56;6.40;99.90
7384;DHT22;3733;47.994;8.820;2023-03-20T03:37:30;6.40;99.90
7384;DHT22;3733;47.994;8.820;2023-03-20T03:42:55;6.30;99.90
7384;DHT22;3733;47.994;8.820;2023-03-20T03:45:31;6.30;99.90
7384;DHT22;3733;47.994;8.820;2023-03-20T03:48:12;6.20;99.90
7384;DHT22;3733;47.994;8.820;2023-03-20T03:50:48;6.20;99.90
7384;DHT22;3733;47.994;8.820;2023-03-20T03:53:25;6.10;99.90
7384;DHT22;3733;47.994;8.820;2023-03-20T03:55:56;6.10;99.90
7384;DHT22;3733;47.994;8.820;2023-03-20T03:58:29;6.10;99.90
7384;DHT22;3733;47.994;8.820;2023-03-20T04:00:58;6.00;99.90
7384;DHT22;3733;47.994;8.820;2023-03-20T04:03:29;6.00;99.90
7384;DHT22;3733;47.994;8.820;2023-03-20T04:05:57;6.00;99.90
7384;DHT22;3733;47.994;8.820;2023-03-20T04:08:23;6.00;99.90
7384;DHT22;3733;47.994;8.820;2023-03-20T04:10:49;6.00;99.90
7384;DHT22;3733;47.994;8.820;2023-03-20T04:13:15;6.00;99.90
7384;DHT22;3733;47.994;8.820;2023-03-20T04:15:41;6.00;99.90
7384;DHT22;3733;47.994;8.820;2023-03-20T04:18:16;6.00;99.90
7384;DHT22;3733;47.994;8.820;2023-03-20T04:20:43;6.00;99.90
7384;DHT22;3733;47.994;8.820;2023-03-20T04:23:08;6.10;99.90
7384;DHT22;3733;47.994;8.820;2023-03-20T04:25:34;6.00;99.90
7384;DHT22;3733;47.994;8.820;2023-03-20T04:28:00;6.00;99.90
7384;DHT22;3733;47.994;8.820;2023-03-20T04:30:25;6.00;99.90
7384;DHT22;3733;47.994;8.820;2023-03-20T04:32:51;6.00;99.90
7384;DHT22;3733;47.994;8.820;2023-03-20T04:35:17;6.00;99.90
7384;DHT22;3733;47.994;8.820;2023-03-20T04:37:43;6.00;99.90
7384;DHT22;3733;47.994;8.820;2023-03-20T04:40:09;6.00;99.90
7384;DHT22;3733;47.994;8.820;2023-03-20T04:42:35;6.00;99.90
7384;DHT22;3733;47.994;8.820;2023-03-20T04:45:01;6.00;99.90
7384;DHT22;3733;47.994;8.820;2023-03-20T04:47:26;6.00;99.90
7384;DHT22;3733;47.994;8.820;2023-03-20T04:49:52;6.00;99.90
7384;DHT22;3733;47.994;8.820;2023-03-20T04:52:17;6.00;99.90
7384;DHT22;3733;47.994;8.820;2023-03-20T04:54:43;6.00;99.90
7384;DHT22;3733;47.994;8.820;2023-03-20T04:57:09;6.00;99.90
7384;DHT22;3733;47.994;8.820;2023-03-20T04:59:34;6.00;99.90
7384;DHT22;3733;47.994;8.820;2023-03-20T05:02:00;6.00;99.90
7384;DHT22;3733;47.994;8.820;2023-03-20T05:04:25;6.00;99.90
7384;DHT22;3733;47.994;8.820;2023-03-20T05:06:52;6.00;99.90
7384;DHT22;3733;47.994;8.820;2023-03-20T05:09:18;6.10;99.90
7384;DHT22;3733;47.994;8.820;2023-03-20T05:11:43;6.10;99.90
7384;DHT22;3733;47.994;8.820;2023-03-20T05:14:09;6.10;99.90
7384;DHT22;3733;47.994;8.820;2023-03-20T05:16:36;6.10;99.90
7384;DHT22;3733;47.994;8.820;2023-03-20T05:19:02;6.10;99.90
7384;DHT22;3733;47.994;8.820;2023-03-20T05:21:28;6.10;99.90
7384;DHT22;3733;47.994;8.820;2023-03-20T05:23:53;6.10;99.90
7384;DHT22;3733;47.994;8.820;2023-03-20T05:26:19;6.10;99.90
7384;DHT22;3733;47.994;8.820;2023-03-20T05:28:44;6.10;99.90
7384;DHT22;3733;47.994;8.820;2023-03-20T05:31:10;6.10;99.90
7384;DHT22;3733;47.994;8.820;2023-03-20T05:33:36;6.10;99.90
7384;DHT22;3733;47.994;8.820;2023-03-20T05:36:02;6.20;99.90
7384;DHT22;3733;47.994;8.820;2023-03-20T05:38:28;6.10;99.90
7384;DHT22;3733;47.994;8.820;2023-03-20T05:41:00;6.10;99.90
7384;DHT22;3733;47.994;8.820;2023-03-20T05:43:26;6.10;99.90
7384;DHT22;3733;47.994;8.820;2023-03-20T05:45:54;6.20;99.90
7384;DHT22;3733;47.994;8.820;2023-03-20T05:48:20;6.20;99.90
7384;DHT22;3733;47.994;8.820;2023-03-20T05:50:46;6.20;99.90
7384;DHT22;3733;47.994;8.820;2023-03-20T05:53:12;6.10;99.90
7384;DHT22;3733;47.994;8.820;2023-03-20T05:55:37;6.10;99.90
7384;DHT22;3733;47.994;8.820;2023-03-20T05:58:04;6.10;99.90
7384;DHT22;3733;47.994;8.820;2023-03-20T06:00:29;6.10;99.90
7384;DHT22;3733;47.994;8.820;2023-03-20T06:02:55;6.10;99.90
7384;DHT22;3733;47.994;8.820;2023-03-20T06:05:21;6.10;99.90
7384;DHT22;3733;47.994;8.820;2023-03-20T06:07:46;6.20;99.90
7384;DHT22;3733;47.994;8.820;2023-03-20T06:10:12;6.20;99.90
7384;DHT22;3733;47.994;8.820;2023-03-20T06:12:37;6.20;99.90
7384;DHT22;3733;47.994;8.820;2023-03-20T06:15:04;6.20;99.90
7384;DHT22;3733;47.994;8.820;2023-03-20T06:17:29;6.30;99.90
7384;DHT22;3733;47.994;8.820;2023-03-20T06:19:55;6.30;99.90
7384;DHT22;3733;47.994;8.820;2023-03-20T06:22:21;6.30;99.90
7384;DHT22;3733;47.994;8.820;2023-03-20T06:24:46;6.30;99.90
7384;DHT22;3733;47.994;8.820;2023-03-20T06:27:12;6.40;99.90
7384;DHT22;3733;47.994;8.820;2023-03-20T06:29:37;6.40;99.90
7384;DHT22;3733;47.994;8.820;2023-03-20T06:32:06;6.40;99.90
7384;DHT22;3733;47.994;8.820;2023-03-20T06:34:32;6.40;99.90
7384;DHT22;3733;47.994;8.820;2023-03-20T06:36:58;6.40;99.90
7384;DHT22;3733;47.994;8.820;2023-03-20T06:39:23;6.50;99.90
7384;DHT22;3733;47.994;8.820;2023-03-20T06:41:49;6.50;99.90
7384;DHT22;3733;47.994;8.820;2023-03-20T06:44:15;6.50;99.90
7384;DHT22;3733;47.994;8.820;2023-03-20T06:46:41;6.50;99.90
7384;DHT22;3733;47.994;8.820;2023-03-20T06:49:06;6.50;99.90
7384;DHT22;3733;47.994;8.820;2023-03-20T06:51:32;6.50;99.90
7384;DHT22;3733;47.994;8.820;2023-03-20T06:53:57;6.50;99.90
7384;DHT22;3733;47.994;8.820;2023-03-20T06:56:23;6.60;99.90
7384;DHT22;3733;47.994;8.820;2023-03-20T06:58:49;6.60;99.90
7384;DHT22;3733;47.994;8.820;2023-03-20T07:01:15;6.60;99.90
7384;DHT22;3733;47.994;8.820;2023-03-20T07:03:44;6.60;99.90
7384;DHT22;3733;47.994;8.820;2023-03-20T07:06:10;6.60;99.90
7384;DHT22;3733;47.994;8.820;2023-03-20T07:08:37;6.70;99.90
7384;DHT22;3733;47.994;8.820;2023-03-20T07:11:02;6.70;99.90
7384;DHT22;3733;47.994;8.820;2023-03-20T07:13:29;6.70;99.90
7384;DHT22;3733;47.994;8.820;2023-03-20T07:15:55;6.70;99.90
7384;DHT22;3733;47.994;8.820;2023-03-20T07:18:23;6.80;99.90
7384;DHT22;3733;47.994;8.820;2023-03-20T07:20:53;6.80;99.90
7384;DHT22;3733;47.994;8.820;2023-03-20T07:23:22;6.80;99.90
7384;DHT22;3733;47.994;8.820;2023-03-20T07:25:48;6.90;99.90
7384;DHT22;3733;47.994;8.820;2023-03-20T07:28:13;6.90;99.90
7384;DHT22;3733;47.994;8.820;2023-03-20T07:30:39;6.90;99.90
7384;DHT22;3733;47.994;8.820;2023-03-20T07:33:05;7.00;99.90
7384;DHT22;3733;47.994;8.820;2023-03-20T07:35:32;7.00;99.90
7384;DHT22;3733;47.994;8.820;2023-03-20T07:37:57;7.10;99.90
7384;DHT22;3733;47.994;8.820;2023-03-20T07:40:23;7.20;99.90
7384;DHT22;3733;47.994;8.820;2023-03-20T07:42:49;7.30;99.90
7384;DHT22;3733;47.994;8.820;2023-03-20T07:45:14;7.30;99.90
7384;DHT22;3733;47.994;8.820;2023-03-20T07:47:43;7.40;99.90
7384;DHT22;3733;47.994;8.820;2023-03-20T07:50:09;7.40;99.90
7384;DHT22;3733;47.994;8.820;2023-03-20T07:52:35;7.40;99.90
7384;DHT22;3733;47.994;8.820;2023-03-20T07:55:01;7.40;99.90
7384;DHT22;3733;47.994;8.820;2023-03-20T07:57:26;7.50;99.90
7384;DHT22;3733;47.994;8.820;2023-03-20T07:59:52;7.50;99.90
7384;DHT22;3733;47.994;8.820;2023-03-20T08:02:17;7.50;99.90
7384;DHT22;3733;47.994;8.820;2023-03-20T08:04:43;7.50;99.90
7384;DHT22;3733;47.994;8.820;2023-03-20T08:07:09;7.60;99.90
7384;DHT22;3733;47.994;8.820;2023-03-20T08:09:35;7.60;99.90
7384;DHT22;3733;47.994;8.820;2023-03-20T08:12:01;7.70;99.90
7384;DHT22;3733;47.994;8.820;2023-03-20T08:14:27;7.70;99.90
7384;DHT22;3733;47.994;8.820;2023-03-20T08:16:52;7.70;99.90
7384;DHT22;3733;47.994;8.820;2023-03-20T08:19:18;7.80;99.90
7384;DHT22;3733;47.994;8.820;2023-03-20T08:21:44;7.80;99.90
7384;DHT22;3733;47.994;8.820;2023-03-20T08:24:09;7.80;99.90
7384;DHT22;3733;47.994;8.820;2023-03-20T08:26:35;7.80;99.90
7384;DHT22;3733;47.994;8.820;2023-03-20T08:29:01;7.80;99.90
7384;DHT22;3733;47.994;8.820;2023-03-20T08:31:27;7.80;99.90
7384;DHT22;3733;47.994;8.820;2023-03-20T08:33:53;7.90;99.90
7384;DHT22;3733;47.994;8.820;2023-03-20T08:36:19;7.90;99.90
7384;DHT22;3733;47.994;8.820;2023-03-20T08:38:46;7.90;99.90
7384;DHT22;3733;47.994;8.820;2023-03-20T08:41:12;8.00;99.90
7384;DHT22;3733;47.994;8.820;2023-03-20T08:43:38;8.00;99.90
7384;DHT22;3733;47.994;8.820;2023-03-20T08:46:05;8.00;99.90
7384;DHT22;3733;47.994;8.820;2023-03-20T08:48:31;8.10;99.90
7384;DHT22;3733;47.994;8.820;2023-03-20T08:50:56;8.10;99.90
7384;DHT22;3733;47.994;8.820;2023-03-20T08:53:22;8.20;99.90
7384;DHT22;3733;47.994;8.820;2023-03-20T08:55:48;8.20;99.90
7384;DHT22;3733;47.994;8.820;2023-03-20T08:58:15;8.30;99.90
7384;DHT22;3733;47.994;8.820;2023-03-20T09:00:40;8.30;99.90
7384;DHT22;3733;47.994;8.820;2023-03-20T09:03:08;8.40;99.90
7384;DHT22;3733;47.994;8.820;2023-03-20T09:05:35;8.40;99.90
7384;DHT22;3733;47.994;8.820;2023-03-20T09:08:01;8.40;99.90
7384;DHT22;3733;47.994;8.820;2023-03-20T09:10:27;8.50;99.90
7384;DHT22;3733;47.994;8.820;2023-03-20T09:12:52;8.50;99.90
7384;DHT22;3733;47.994;8.820;2023-03-20T09:15:18;8.50;99.90
7384;DHT22;3733;47.994;8.820;2023-03-20T09:17:44;8.50;99.90
7384;DHT22;3733;47.994;8.820;2023-03-20T09:20:10;8.60;99.90
7384;DHT22;3733;47.994;8.820;2023-03-20T09:22:36;8.60;99.90
7384;DHT22;3733;47.994;8.820;2023-03-20T09:25:01;8.60;99.90
7384;DHT22;3733;47.994;8.820;2023-03-20T09:27:27;8.60;99.90
7384;DHT22;3733;47.994;8.820;2023-03-20T09:29:53;8.70;99.90
7384;DHT22;3733;47.994;8.820;2023-03-20T09:32:18;8.70;99.90
7384;DHT22;3733;47.994;8.820;2023-03-20T09:34:44;8.80;99.90
7384;DHT22;3733;47.994;8.820;2023-03-20T09:37:10;8.80;99.90
7384;DHT22;3733;47.994;8.820;2023-03-20T09:39:36;8.90;99.90
7384;DHT22;3733;47.994;8.820;2023-03-20T09:45:26;9.10;99.90
7384;DHT22;3733;47.994;8.820;2023-03-20T09:48:06;9.10;99.90
7384;DHT22;3733;47.994;8.820;2023-03-20T09:50:59;9.10;99.90
7384;DHT22;3733;47.994;8.820;2023-03-20T09:53:37;9.10;99.90
7384;DHT22;3733;47.994;8.820;2023-03-20T09:56:04;9.10;99.90
7384;DHT22;3733;47.994;8.820;2023-03-20T09:58:36;9.10;99.90
7384;DHT22;3733;47.994;8.820;2023-03-20T10:01:03;9.10;99.90
7384;DHT22;3733;47.994;8.820;2023-03-20T10:03:42;9.20;99.90
7384;DHT22;3733;47.994;8.820;2023-03-20T10:06:12;9.30;99.90
7384;DHT22;3733;47.994;8.820;2023-03-20T10:08:39;9.30;99.90
7384;DHT22;3733;47.994;8.820;2023-03-20T10:22:50;10.10;89.50
7384;DHT22;3733;47.994;8.820;2023-03-20T10:25:34;10.10;88.60
7384;DHT22;3733;47.994;8.820;2023-03-20T10:28:13;10.10;90.20
7384;DHT22;3733;47.994;8.820;2023-03-20T10:36:55;9.90;86.60
7384;DHT22;3733;47.994;8.820;2023-03-20T10:41:51;9.90;93.80
7384;DHT22;3733;47.994;8.820;2023-03-20T10:44:36;9.90;93.40
7384;DHT22;3733;47.994;8.820;2023-03-20T10:47:07;9.90;94.60
7384;DHT22;3733;47.994;8.820;2023-03-20T10:49:38;9.90;95.30
7384;DHT22;3733;47.994;8.820;2023-03-20T10:52:18;10.00;95.20
7384;DHT22;3733;47.994;8.820;2023-03-20T10:54:48;10.00;95.90
7384;DHT22;3733;47.994;8.820;2023-03-20T10:57:26;10.10;95.90
7384;DHT22;3733;47.994;8.820;2023-03-20T10:59:56;10.00;93.30
7384;DHT22;3733;47.994;8.820;2023-03-20T11:02:27;10.00;93.80
7384;DHT22;3733;47.994;8.820;2023-03-20T11:04:53;10.00;93.90
7384;DHT22;3733;47.994;8.820;2023-03-20T11:07:22;10.00;93.90
7384;DHT22;3733;47.994;8.820;2023-03-20T11:12:32;9.90;92.60
7384;DHT22;3733;47.994;8.820;2023-03-20T11:14:59;10.00;93.60
7384;DHT22;3733;47.994;8.820;2023-03-20T11:17:29;10.00;93.30
7384;DHT22;3733;47.994;8.820;2023-03-20T11:20:02;10.00;94.60
7384;DHT22;3733;47.994;8.820;2023-03-20T11:22:28;10.10;95.70
7384;DHT22;3733;47.994;8.820;2023-03-20T11:24:57;10.10;95.20
7384;DHT22;3733;47.994;8.820;2023-03-20T11:27:28;10.10;93.50
7384;DHT22;3733;47.994;8.820;2023-03-20T11:29:55;10.10;92.60
7384;DHT22;3733;47.994;8.820;2023-03-20T11:32:34;10.10;92.20
7384;DHT22;3733;47.994;8.820;2023-03-20T11:37:47;10.00;94.20
7384;DHT22;3733;47.994;8.820;2023-03-20T11:40:21;10.00;94.40
7384;DHT22;3733;47.994;8.820;2023-03-20T11:43:03;10.10;95.00
7384;DHT22;3733;47.994;8.820;2023-03-20T11:45:39;10.10;94.70
7384;DHT22;3733;47.994;8.820;2023-03-20T11:48:16;10.10;95.10
7384;DHT22;3733;47.994;8.820;2023-03-20T11:50:51;10.20;95.10
7384;DHT22;3733;47.994;8.820;2023-03-20T11:53:20;10.30;93.30
7384;DHT22;3733;47.994;8.820;2023-03-20T11:58:27;10.50;93.80
7384;DHT22;3733;47.994;8.820;2023-03-20T12:00:56;10.50;91.30
7384;DHT22;3733;47.994;8.820;2023-03-20T12:06:25;10.50;91.50
7384;DHT22;3733;47.994;8.820;2023-03-20T12:09:01;10.60;86.30
7384;DHT22;3733;47.994;8.820;2023-03-20T12:14:29;10.70;89.50
7384;DHT22;3733;47.994;8.820;2023-03-20T12:19:58;11.10;95.00
7384;DHT22;3733;47.994;8.820;2023-03-20T12:22:34;11.60;96.30
7384;DHT22;3733;47.994;8.820;2023-03-20T12:25:24;12.00;91.70
7384;DHT22;3733;47.994;8.820;2023-03-20T12:28:18;12.20;82.80
7384;DHT22;3733;47.994;8.820;2023-03-20T12:33:41;12.30;69.60
7384;DHT22;3733;47.994;8.820;2023-03-20T12:36:32;12.20;64.40
7384;DHT22;3733;47.994;8.820;2023-03-20T12:39:01;12.00;64.60
7384;DHT22;3733;47.994;8.820;2023-03-20T12:41:28;11.80;60.70
7384;DHT22;3733;47.994;8.820;2023-03-20T12:44:19;11.70;61.80
7384;DHT22;3733;47.994;8.820;2023-03-20T12:58:46;12.90;62.80
7384;DHT22;3733;47.994;8.820;2023-03-20T13:12:15;13.00;55.20
7384;DHT22;3733;47.994;8.820;2023-03-20T13:20:32;12.90;55.10
7384;DHT22;3733;47.994;8.820;2023-03-20T13:23:24;12.80;55.50
7384;DHT22;3733;47.994;8.820;2023-03-20T13:29:37;12.50;56.10
7384;DHT22;3733;47.994;8.820;2023-03-20T13:42:51;12.10;55.90
7384;DHT22;3733;47.994;8.820;2023-03-20T13:45:37;12.00;56.30
7384;DHT22;3733;47.994;8.820;2023-03-20T13:50:56;12.00;56.70
7384;DHT22;3733;47.994;8.820;2023-03-20T13:53:49;12.00;56.90
7384;DHT22;3733;47.994;8.820;2023-03-20T13:59:23;12.70;57.10
7384;DHT22;3733;47.994;8.820;2023-03-20T14:02:10;12.90;55.70
7384;DHT22;3733;47.994;8.820;2023-03-20T14:04:37;12.90;54.50
7384;DHT22;3733;47.994;8.820;2023-03-20T14:07:33;12.70;52.70
7384;DHT22;3733;47.994;8.820;2023-03-20T14:13:16;12.40;54.40
7384;DHT22;3733;47.994;8.820;2023-03-20T14:15:53;12.40;54.30
7384;DHT22;3733;47.994;8.820;2023-03-20T14:18:22;12.30;55.10
7384;DHT22;3733;47.994;8.820;2023-03-20T14:21:00;12.30;55.50
7384;DHT22;3733;47.994;8.820;2023-03-20T14:23:32;12.20;54.90
7384;DHT22;3733;47.994;8.820;2023-03-20T14:25:59;12.10;54.50
7384;DHT22;3733;47.994;8.820;2023-03-20T14:28:28;12.10;54.90
7384;DHT22;3733;47.994;8.820;2023-03-20T14:31:32;12.10;54.70
7384;DHT22;3733;47.994;8.820;2023-03-20T14:34:18;12.00;54.80
7384;DHT22;3733;47.994;8.820;2023-03-20T14:36:59;12.00;55.50
7384;DHT22;3733;47.994;8.820;2023-03-20T14:50:17;11.70;57.10
7384;DHT22;3733;47.994;8.820;2023-03-20T14:57:45;11.60;58.10
7384;DHT22;3733;47.994;8.820;2023-03-20T15:00:21;11.60;59.70
7384;DHT22;3733;47.994;8.820;2023-03-20T15:02:51;11.60;60.20
7384;DHT22;3733;47.994;8.820;2023-03-20T15:05:28;11.60;60.10
7384;DHT22;3733;47.994;8.820;2023-03-20T15:10:35;11.70;62.20
7384;DHT22;3733;47.994;8.820;2023-03-20T15:13:05;11.60;62.60
7384;DHT22;3733;47.994;8.820;2023-03-20T15:15:31;11.70;62.80
7384;DHT22;3733;47.994;8.820;2023-03-20T15:18:10;11.70;61.90
7384;DHT22;3733;47.994;8.820;2023-03-20T15:20:36;11.80;60.70
7384;DHT22;3733;47.994;8.820;2023-03-20T15:23:02;11.90;59.50
7384;DHT22;3733;47.994;8.820;2023-03-20T15:25:39;11.90;60.00
7384;DHT22;3733;47.994;8.820;2023-03-20T15:28:12;11.90;60.60
7384;DHT22;3733;47.994;8.820;2023-03-20T15:30:38;11.90;60.60
7384;DHT22;3733;47.994;8.820;2023-03-20T15:33:06;11.90;60.60
7384;DHT22;3733;47.994;8.820;2023-03-20T15:35:32;11.90;60.90
7384;DHT22;3733;47.994;8.820;2023-03-20T15:38:04;11.90;60.60
7384;DHT22;3733;47.994;8.820;2023-03-20T15:40:31;11.90;61.00
7384;DHT22;3733;47.994;8.820;2023-03-20T15:43:10;11.90;60.90
7384;DHT22;3733;47.994;8.820;2023-03-20T15:45:38;11.90;61.10
7384;DHT22;3733;47.994;8.820;2023-03-20T15:48:14;11.80;61.70
7384;DHT22;3733;47.994;8.820;2023-03-20T15:50:43;11.80;62.10
7384;DHT22;3733;47.994;8.820;2023-03-20T15:53:17;11.70;62.30
7384;DHT22;3733;47.994;8.820;2023-03-20T15:55:49;11.70;62.60
7384;DHT22;3733;47.994;8.820;2023-03-20T15:58:16;11.70;62.90
7384;DHT22;3733;47.994;8.820;2023-03-20T16:00:45;11.70;63.80
7384;DHT22;3733;47.994;8.820;2023-03-20T16:03:17;11.70;63.60
7384;DHT22;3733;47.994;8.820;2023-03-20T16:05:46;11.70;63.70
7384;DHT22;3733;47.994;8.820;2023-03-20T16:08:30;11.60;64.50
7384;DHT22;3733;47.994;8.820;2023-03-20T16:11:03;11.60;65.50
7384;DHT22;3733;47.994;8.820;2023-03-20T16:13:34;11.60;64.50
7384;DHT22;3733;47.994;8.820;2023-03-20T16:16:02;11.50;66.10
7384;DHT22;3733;47.994;8.820;2023-03-20T16:18:30;11.50;66.10
7384;DHT22;3733;47.994;8.820;2023-03-20T16:21:02;11.40;66.60
7384;DHT22;3733;47.994;8.820;2023-03-20T16:23:36;11.40;67.00
7384;DHT22;3733;47.994;8.820;2023-03-20T16:26:05;11.30;68.30
7384;DHT22;3733;47.994;8.820;2023-03-20T16:28:35;11.30;68.40
7384;DHT22;3733;47.994;8.820;2023-03-20T16:31:17;11.20;68.30
7384;DHT22;3733;47.994;8.820;2023-03-20T16:33:44;11.10;69.00
7384;DHT22;3733;47.994;8.820;2023-03-20T16:36:18;11.10;69.90
7384;DHT22;3733;47.994;8.820;2023-03-20T16:39:09;11.10;71.00
7384;DHT22;3733;47.994;8.820;2023-03-20T16:41:42;11.00;71.50
7384;DHT22;3733;47.994;8.820;2023-03-20T16:44:14;11.00;71.60
7384;DHT22;3733;47.994;8.820;2023-03-20T16:51:58;11.00;72.10
7384;DHT22;3733;47.994;8.820;2023-03-20T16:54:26;11.00;71.30
7384;DHT22;3733;47.994;8.820;2023-03-20T16:56:54;10.90;70.60
7384;DHT22;3733;47.994;8.820;2023-03-20T16:59:20;10.90;71.70
7384;DHT22;3733;47.994;8.820;2023-03-20T17:01:47;10.90;71.80
7384;DHT22;3733;47.994;8.820;2023-03-20T17:04:42;10.90;73.10
7384;DHT22;3733;47.994;8.820;2023-03-20T17:07:16;10.90;72.90
7384;DHT22;3733;47.994;8.820;2023-03-20T17:09:55;10.90;72.20
7384;DHT22;3733;47.994;8.820;2023-03-20T17:12:23;10.80;72.80
7384;DHT22;3733;47.994;8.820;2023-03-20T17:14:50;10.80;74.10
7384;DHT22;3733;47.994;8.820;2023-03-20T17:17:18;10.80;75.40
7384;DHT22;3733;47.994;8.820;2023-03-20T17:19:47;10.70;76.70
7384;DHT22;3733;47.994;8.820;2023-03-20T17:22:20;10.70;77.00
7384;DHT22;3733;47.994;8.820;2023-03-20T17:24:46;10.70;76.90
7384;DHT22;3733;47.994;8.820;2023-03-20T17:27:12;10.60;77.60
7384;DHT22;3733;47.994;8.820;2023-03-20T17:29:39;10.60;78.10
7384;DHT22;3733;47.994;8.820;2023-03-20T17:32:13;10.60;78.10
7384;DHT22;3733;47.994;8.820;2023-03-20T17:34:40;10.50;77.20
7384;DHT22;3733;47.994;8.820;2023-03-20T17:37:08;10.50;77.90
7384;DHT22;3733;47.994;8.820;2023-03-20T17:39:36;10.50;79.70
7384;DHT22;3733;47.994;8.820;2023-03-20T17:42:01;10.40;83.30
7384;DHT22;3733;47.994;8.820;2023-03-20T17:44:27;10.50;85.80
7384;DHT22;3733;47.994;8.820;2023-03-20T17:46:53;10.40;86.00
7384;DHT22;3733;47.994;8.820;2023-03-20T17:49:19;10.40;85.60
7384;DHT22;3733;47.994;8.820;2023-03-20T17:51:51;10.40;85.00
7384;DHT22;3733;47.994;8.820;2023-03-20T17:54:17;10.40;84.00
7384;DHT22;3733;47.994;8.820;2023-03-20T17:56:43;10.30;85.00
7384;DHT22;3733;47.994;8.820;2023-03-20T17:59:12;10.30;86.50
7384;DHT22;3733;47.994;8.820;2023-03-20T18:01:38;10.30;88.80
7384;DHT22;3733;47.994;8.820;2023-03-20T18:04:04;10.30;90.60
7384;DHT22;3733;47.994;8.820;2023-03-20T18:06:31;10.20;90.90
7384;DHT22;3733;47.994;8.820;2023-03-20T18:08:59;10.20;91.20
7384;DHT22;3733;47.994;8.820;2023-03-20T18:11:26;10.20;91.50
7384;DHT22;3733;47.994;8.820;2023-03-20T18:13:52;10.20;92.10
7384;DHT22;3733;47.994;8.820;2023-03-20T18:16:20;10.10;92.40
7384;DHT22;3733;47.994;8.820;2023-03-20T18:18:46;10.10;92.80
7384;DHT22;3733;47.994;8.820;2023-03-20T18:21:14;10.10;93.60
7384;DHT22;3733;47.994;8.820;2023-03-20T18:23:40;10.00;94.30
7384;DHT22;3733;47.994;8.820;2023-03-20T18:26:20;10.00;94.90
7384;DHT22;3733;47.994;8.820;2023-03-20T18:28:47;10.00;94.90
7384;DHT22;3733;47.994;8.820;2023-03-20T18:31:13;10.00;95.70
7384;DHT22;3733;47.994;8.820;2023-03-20T18:33:46;10.00;96.10
7384;DHT22;3733;47.994;8.820;2023-03-20T18:36:17;9.90;96.40
7384;DHT22;3733;47.994;8.820;2023-03-20T18:38:43;9.90;96.70
7384;DHT22;3733;47.994;8.820;2023-03-20T18:41:09;9.90;96.40
7384;DHT22;3733;47.994;8.820;2023-03-20T18:43:34;9.90;97.00
7384;DHT22;3733;47.994;8.820;2023-03-20T18:46:00;9.90;96.50
7384;DHT22;3733;47.994;8.820;2023-03-20T18:48:26;9.80;96.70
7384;DHT22;3733;47.994;8.820;2023-03-20T18:50:55;9.80;97.80
7384;DHT22;3733;47.994;8.820;2023-03-20T18:53:25;9.80;98.70
7384;DHT22;3733;47.994;8.820;2023-03-20T18:55:51;9.80;98.80
7384;DHT22;3733;47.994;8.820;2023-03-20T18:58:22;9.70;98.80
7384;DHT22;3733;47.994;8.820;2023-03-20T19:00:48;9.70;99.30
7384;DHT22;3733;47.994;8.820;2023-03-20T19:03:14;9.70;99.60
7384;DHT22;3733;47.994;8.820;2023-03-20T19:05:41;9.70;99.30
7384;DHT22;3733;47.994;8.820;2023-03-20T19:08:08;9.60;99.60
7384;DHT22;3733;47.994;8.820;2023-03-20T19:10:36;9.60;99.60
7384;DHT22;3733;47.994;8.820;2023-03-20T19:13:05;9.60;99.40
7384;DHT22;3733;47.994;8.820;2023-03-20T19:15:33;9.50;99.50
7384;DHT22;3733;47.994;8.820;2023-03-20T19:18:05;9.50;98.80
7384;DHT22;3733;47.994;8.820;2023-03-20T19:20:39;9.50;97.70
7384;DHT22;3733;47.994;8.820;2023-03-20T19:23:07;9.40;97.20
7384;DHT22;3733;47.994;8.820;2023-03-20T19:25:35;9.40;97.10